sensor_id;sensor_type;location;lat;lon;timestamp;P1;durP1;ratioP1;P2;durP2;ratioP2
15635;SDS011;7917;50.818;6.972;2022-12-07T00:00:54;40.30;;;24.55;;
15635;SDS011;7917;50.818;6.972;2022-12-07T00:03:22;41.50;;;23.27;;
15635;SDS011;7917;50.818;6.972;2022-12-07T00:05:49;43.10;;;24.60;;
15635;SDS011;7917;50.818;6.972;2022-12-07T00:08:18;41.90;;;23.70;;
15635;SDS011;7917;50.818;6.972;2022-12-07T00:10:46;40.97;;;24.10;;
15635;SDS011;7917;50.818;6.972;2022-12-07T00:13:13;40.10;;;23.98;;
15635;SDS011;7917;50.818;6.972;2022-12-07T00:15:40;40.97;;;24.95;;
15635;SDS011;7917;50.818;6.972;2022-12-07T00:18:10;44.97;;;25.60;;
15635;SDS011;7917;50.818;6.972;2022-12-07T00:20:37;43.78;;;24.73;;
15635;SDS011;7917;50.818;6.972;2022-12-07T00:23:05;44.40;;;25.30;;
15635;SDS011;7917;50.818;6.972;2022-12-07T00:25:33;41.25;;;25.02;;
15635;SDS011;7917;50.818;6.972;2022-12-07T00:28:02;40.55;;;24.95;;
15635;SDS011;7917;50.818;6.972;2022-12-07T00:30:30;41.72;;;24.98;;
15635;SDS011;7917;50.818;6.972;2022-12-07T00:32:57;42.10;;;26.05;;
15635;SDS011;7917;50.818;6.972;2022-12-07T00:35:24;44.75;;;25.35;;
15635;SDS011;7917;50.818;6.972;2022-12-07T00:37:51;46.67;;;25.67;;
15635;SDS011;7917;50.818;6.972;2022-12-07T00:40:18;43.72;;;26.80;;
15635;SDS011;7917;50.818;6.972;2022-12-07T00:42:45;43.67;;;25.60;;
15635;SDS011;7917;50.818;6.972;2022-12-07T00:45:14;45.20;;;25.02;;
15635;SDS011;7917;50.818;6.972;2022-12-07T00:47:42;39.28;;;25.33;;
15635;SDS011;7917;50.818;6.972;2022-12-07T00:50:09;45.85;;;25.15;;
15635;SDS011;7917;50.818;6.972;2022-12-07T00:52:38;46.35;;;25.83;;
15635;SDS011;7917;50.818;6.972;2022-12-07T00:55:06;43.00;;;25.55;;
15635;SDS011;7917;50.818;6.972;2022-12-07T00:57:34;46.90;;;26.88;;
15635;SDS011;7917;50.818;6.972;2022-12-07T01:00:01;46.58;;;26.45;;
15635;SDS011;7917;50.818;6.972;2022-12-07T01:02:33;44.70;;;27.88;;
15635;SDS011;7917;50.818;6.972;2022-12-07T01:05:01;47.03;;;27.50;;
15635;SDS011;7917;50.818;6.972;2022-12-07T01:07:28;46.22;;;26.40;;
15635;SDS011;7917;50.818;6.972;2022-12-07T01:09:55;49.60;;;26.48;;
15635;SDS011;7917;50.818;6.972;2022-12-07T01:12:22;46.97;;;26.23;;
15635;SDS011;7917;50.818;6.972;2022-12-07T01:14:49;46.70;;;25.95;;
15635;SDS011;7917;50.818;6.972;2022-12-07T01:17:18;47.88;;;26.20;;
15635;SDS011;7917;50.818;6.972;2022-12-07T01:19:46;46.20;;;26.88;;
15635;SDS011;7917;50.818;6.972;2022-12-07T01:22:13;45.70;;;25.20;;
15635;SDS011;7917;50.818;6.972;2022-12-07T01:24:41;40.92;;;25.35;;
15635;SDS011;7917;50.818;6.972;2022-12-07T01:27:08;47.88;;;28.05;;
15635;SDS011;7917;50.818;6.972;2022-12-07T01:29:35;43.80;;;26.92;;
15635;SDS011;7917;50.818;6.972;2022-12-07T01:32:04;47.00;;;26.48;;
15635;SDS011;7917;50.818;6.972;2022-12-07T01:34:31;41.65;;;26.45;;
15635;SDS011;7917;50.818;6.972;2022-12-07T01:37:00;46.63;;;27.55;;
15635;SDS011;7917;50.818;6.972;2022-12-07T01:39:27;44.17;;;26.13;;
15635;SDS011;7917;50.818;6.972;2022-12-07T01:41:54;47.30;;;25.80;;
15635;SDS011;7917;50.818;6.972;2022-12-07T01:44:22;42.35;;;25.33;;
15635;SDS011;7917;50.818;6.972;2022-12-07T01:46:50;45.05;;;25.65;;
15635;SDS011;7917;50.818;6.972;2022-12-07T01:49:20;46.25;;;26.70;;
15635;SDS011;7917;50.818;6.972;2022-12-07T01:51:53;44.35;;;27.23;;
15635;SDS011;7917;50.818;6.972;2022-12-07T01:54:28;42.65;;;25.27;;
15635;SDS011;7917;50.818;6.972;2022-12-07T01:56:55;40.53;;;25.70;;
15635;SDS011;7917;50.818;6.972;2022-12-07T01:59:25;49.47;;;27.10;;
15635;SDS011;7917;50.818;6.972;2022-12-07T02:01:52;45.72;;;26.33;;
15635;SDS011;7917;50.818;6.972;2022-12-07T02:04:21;44.67;;;25.98;;
15635;SDS011;7917;50.818;6.972;2022-12-07T02:06:50;44.50;;;25.60;;
15635;SDS011;7917;50.818;6.972;2022-12-07T02:09:19;44.55;;;25.80;;
15635;SDS011;7917;50.818;6.972;2022-12-07T02:11:47;50.05;;;26.98;;
15635;SDS011;7917;50.818;6.972;2022-12-07T02:14:14;42.50;;;25.58;;
15635;SDS011;7917;50.818;6.972;2022-12-07T02:16:45;49.30;;;26.70;;
15635;SDS011;7917;50.818;6.972;2022-12-07T02:19:29;43.17;;;25.73;;
15635;SDS011;7917;50.818;6.972;2022-12-07T02:22:31;44.97;;;25.33;;
15635;SDS011;7917;50.818;6.972;2022-12-07T02:25:22;39.92;;;23.40;;
15635;SDS011;7917;50.818;6.972;2022-12-07T02:28:02;45.35;;;25.35;;
15635;SDS011;7917;50.818;6.972;2022-12-07T02:30:34;45.17;;;25.92;;
15635;SDS011;7917;50.818;6.972;2022-12-07T02:33:07;45.08;;;24.42;;
15635;SDS011;7917;50.818;6.972;2022-12-07T02:35:41;42.83;;;24.95;;
15635;SDS011;7917;50.818;6.972;2022-12-07T02:38:13;41.65;;;23.92;;
15635;SDS011;7917;50.818;6.972;2022-12-07T02:40:46;41.05;;;24.98;;
15635;SDS011;7917;50.818;6.972;2022-12-07T02:43:19;46.63;;;25.92;;
15635;SDS011;7917;50.818;6.972;2022-12-07T02:45:52;42.03;;;25.52;;
15635;SDS011;7917;50.818;6.972;2022-12-07T02:48:24;41.42;;;25.73;;
15635;SDS011;7917;50.818;6.972;2022-12-07T02:50:54;42.13;;;23.80;;
15635;SDS011;7917;50.818;6.972;2022-12-07T02:53:31;44.95;;;25.92;;
15635;SDS011;7917;50.818;6.972;2022-12-07T02:56:01;43.33;;;24.77;;
15635;SDS011;7917;50.818;6.972;2022-12-07T02:58:33;43.03;;;24.80;;
15635;SDS011;7917;50.818;6.972;2022-12-07T03:01:16;44.35;;;23.55;;
15635;SDS011;7917;50.818;6.972;2022-12-07T03:03:58;38.80;;;23.75;;
15635;SDS011;7917;50.818;6.972;2022-12-07T03:06:36;45.22;;;26.17;;
15635;SDS011;7917;50.818;6.972;2022-12-07T03:09:11;37.63;;;23.33;;
15635;SDS011;7917;50.818;6.972;2022-12-07T03:11:44;46.50;;;25.70;;
15635;SDS011;7917;50.818;6.972;2022-12-07T03:14:18;36.97;;;24.63;;
15635;SDS011;7917;50.818;6.972;2022-12-07T03:16:55;40.60;;;23.85;;
15635;SDS011;7917;50.818;6.972;2022-12-07T03:19:27;44.40;;;25.38;;
15635;SDS011;7917;50.818;6.972;2022-12-07T03:21:57;45.08;;;25.50;;
15635;SDS011;7917;50.818;6.972;2022-12-07T03:24:30;39.53;;;25.42;;
15635;SDS011;7917;50.818;6.972;2022-12-07T03:27:03;39.05;;;23.40;;
15635;SDS011;7917;50.818;6.972;2022-12-07T03:29:36;40.78;;;25.02;;
15635;SDS011;7917;50.818;6.972;2022-12-07T03:32:11;37.55;;;22.38;;
15635;SDS011;7917;50.818;6.972;2022-12-07T03:34:44;39.58;;;24.10;;
15635;SDS011;7917;50.818;6.972;2022-12-07T03:37:17;38.30;;;22.98;;
15635;SDS011;7917;50.818;6.972;2022-12-07T03:39:51;41.88;;;23.98;;
15635;SDS011;7917;50.818;6.972;2022-12-07T03:42:33;39.05;;;22.02;;
15635;SDS011;7917;50.818;6.972;2022-12-07T03:45:00;40.17;;;24.38;;
15635;SDS011;7917;50.818;6.972;2022-12-07T03:47:32;45.05;;;23.90;;
15635;SDS011;7917;50.818;6.972;2022-12-07T03:50:04;41.20;;;24.27;;
15635;SDS011;7917;50.818;6.972;2022-12-07T03:52:38;37.33;;;23.02;;
15635;SDS011;7917;50.818;6.972;2022-12-07T03:55:08;40.58;;;24.92;;
15635;SDS011;7917;50.818;6.972;2022-12-07T03:57:41;39.22;;;23.25;;
15635;SDS011;7917;50.818;6.972;2022-12-07T04:00:56;40.15;;;24.73;;
15635;SDS011;7917;50.818;6.972;2022-12-07T04:03:36;38.30;;;24.40;;
15635;SDS011;7917;50.818;6.972;2022-12-07T04:06:04;37.38;;;23.05;;
15635;SDS011;7917;50.818;6.972;2022-12-07T04:08:39;35.97;;;22.85;;
15635;SDS011;7917;50.818;6.972;2022-12-07T04:11:07;38.08;;;22.67;;
15635;SDS011;7917;50.818;6.972;2022-12-07T04:13:39;40.47;;;23.17;;
15635;SDS011;7917;50.818;6.972;2022-12-07T04:16:21;45.15;;;23.88;;
15635;SDS011;7917;50.818;6.972;2022-12-07T04:18:54;43.25;;;24.73;;
15635;SDS011;7917;50.818;6.972;2022-12-07T04:21:21;42.65;;;23.80;;
15635;SDS011;7917;50.818;6.972;2022-12-07T04:23:48;42.90;;;24.42;;
15635;SDS011;7917;50.818;6.972;2022-12-07T04:26:17;42.67;;;24.38;;
15635;SDS011;7917;50.818;6.972;2022-12-07T04:28:44;39.35;;;24.77;;
15635;SDS011;7917;50.818;6.972;2022-12-07T04:31:12;41.28;;;23.58;;
15635;SDS011;7917;50.818;6.972;2022-12-07T04:33:41;47.72;;;24.45;;
15635;SDS011;7917;50.818;6.972;2022-12-07T04:36:11;39.05;;;24.15;;
15635;SDS011;7917;50.818;6.972;2022-12-07T04:38:38;39.20;;;24.00;;
15635;SDS011;7917;50.818;6.972;2022-12-07T04:41:06;37.00;;;23.45;;
15635;SDS011;7917;50.818;6.972;2022-12-07T04:43:34;37.40;;;22.80;;
15635;SDS011;7917;50.818;6.972;2022-12-07T04:46:02;41.63;;;24.10;;
15635;SDS011;7917;50.818;6.972;2022-12-07T04:48:30;38.65;;;23.92;;
15635;SDS011;7917;50.818;6.972;2022-12-07T04:50:58;37.35;;;23.17;;
15635;SDS011;7917;50.818;6.972;2022-12-07T04:53:27;37.17;;;22.52;;
15635;SDS011;7917;50.818;6.972;2022-12-07T04:55:55;37.10;;;23.20;;
15635;SDS011;7917;50.818;6.972;2022-12-07T04:58:24;40.58;;;22.70;;
15635;SDS011;7917;50.818;6.972;2022-12-07T05:00:53;44.15;;;23.50;;
15635;SDS011;7917;50.818;6.972;2022-12-07T05:03:22;40.25;;;23.17;;
15635;SDS011;7917;50.818;6.972;2022-12-07T05:05:50;44.22;;;23.52;;
15635;SDS011;7917;50.818;6.972;2022-12-07T05:08:17;38.38;;;22.80;;
15635;SDS011;7917;50.818;6.972;2022-12-07T05:10:46;45.33;;;24.98;;
15635;SDS011;7917;50.818;6.972;2022-12-07T05:13:15;37.55;;;22.48;;
15635;SDS011;7917;50.818;6.972;2022-12-07T05:15:42;45.95;;;25.83;;
15635;SDS011;7917;50.818;6.972;2022-12-07T05:18:12;46.70;;;24.95;;
15635;SDS011;7917;50.818;6.972;2022-12-07T05:20:39;38.75;;;23.60;;
15635;SDS011;7917;50.818;6.972;2022-12-07T05:23:06;43.83;;;22.75;;
15635;SDS011;7917;50.818;6.972;2022-12-07T05:25:35;43.22;;;24.08;;
15635;SDS011;7917;50.818;6.972;2022-12-07T05:28:04;43.70;;;23.63;;
15635;SDS011;7917;50.818;6.972;2022-12-07T05:30:32;41.33;;;23.17;;
15635;SDS011;7917;50.818;6.972;2022-12-07T05:33:01;42.78;;;23.95;;
15635;SDS011;7917;50.818;6.972;2022-12-07T05:35:30;40.63;;;23.33;;
15635;SDS011;7917;50.818;6.972;2022-12-07T05:37:57;39.88;;;23.90;;
15635;SDS011;7917;50.818;6.972;2022-12-07T05:40:26;41.35;;;23.92;;
15635;SDS011;7917;50.818;6.972;2022-12-07T05:42:53;42.15;;;24.17;;
15635;SDS011;7917;50.818;6.972;2022-12-07T05:45:23;40.80;;;22.48;;
15635;SDS011;7917;50.818;6.972;2022-12-07T05:47:50;41.22;;;22.60;;
15635;SDS011;7917;50.818;6.972;2022-12-07T05:50:18;43.83;;;25.10;;
15635;SDS011;7917;50.818;6.972;2022-12-07T05:52:45;41.45;;;23.50;;
15635;SDS011;7917;50.818;6.972;2022-12-07T05:55:14;44.63;;;23.63;;
15635;SDS011;7917;50.818;6.972;2022-12-07T05:57:41;45.25;;;24.35;;
15635;SDS011;7917;50.818;6.972;2022-12-07T06:00:31;43.78;;;23.10;;
15635;SDS011;7917;50.818;6.972;2022-12-07T06:02:58;45.75;;;26.55;;
15635;SDS011;7917;50.818;6.972;2022-12-07T06:05:25;48.97;;;25.25;;
15635;SDS011;7917;50.818;6.972;2022-12-07T06:07:53;44.05;;;24.75;;
15635;SDS011;7917;50.818;6.972;2022-12-07T06:10:20;43.83;;;23.98;;
15635;SDS011;7917;50.818;6.972;2022-12-07T06:12:48;44.78;;;24.20;;
15635;SDS011;7917;50.818;6.972;2022-12-07T06:15:14;46.50;;;24.83;;
15635;SDS011;7917;50.818;6.972;2022-12-07T06:17:44;47.38;;;25.27;;
15635;SDS011;7917;50.818;6.972;2022-12-07T06:20:11;45.40;;;24.23;;
15635;SDS011;7917;50.818;6.972;2022-12-07T06:22:39;42.40;;;23.85;;
15635;SDS011;7917;50.818;6.972;2022-12-07T06:25:07;39.20;;;22.80;;
15635;SDS011;7917;50.818;6.972;2022-12-07T06:27:35;46.63;;;24.10;;
15635;SDS011;7917;50.818;6.972;2022-12-07T06:30:02;44.25;;;24.38;;
15635;SDS011;7917;50.818;6.972;2022-12-07T06:32:32;44.28;;;23.73;;
15635;SDS011;7917;50.818;6.972;2022-12-07T06:35:01;46.38;;;24.55;;
15635;SDS011;7917;50.818;6.972;2022-12-07T06:37:28;38.35;;;22.75;;
15635;SDS011;7917;50.818;6.972;2022-12-07T06:39:56;41.95;;;22.88;;
15635;SDS011;7917;50.818;6.972;2022-12-07T06:42:25;47.80;;;22.55;;
15635;SDS011;7917;50.818;6.972;2022-12-07T06:44:52;46.00;;;26.10;;
15635;SDS011;7917;50.818;6.972;2022-12-07T06:47:20;40.42;;;24.58;;
15635;SDS011;7917;50.818;6.972;2022-12-07T06:49:48;43.00;;;22.38;;
15635;SDS011;7917;50.818;6.972;2022-12-07T06:52:16;41.15;;;23.08;;
15635;SDS011;7917;50.818;6.972;2022-12-07T06:54:44;36.78;;;21.60;;
15635;SDS011;7917;50.818;6.972;2022-12-07T06:57:11;37.72;;;22.60;;
15635;SDS011;7917;50.818;6.972;2022-12-07T06:59:39;35.80;;;21.38;;
15635;SDS011;7917;50.818;6.972;2022-12-07T07:02:07;36.75;;;19.77;;
15635;SDS011;7917;50.818;6.972;2022-12-07T07:04:35;38.97;;;19.65;;
15635;SDS011;7917;50.818;6.972;2022-12-07T07:07:03;41.80;;;21.05;;
15635;SDS011;7917;50.818;6.972;2022-12-07T07:09:32;39.03;;;19.60;;
15635;SDS011;7917;50.818;6.972;2022-12-07T07:11:59;40.13;;;20.05;;
15635;SDS011;7917;50.818;6.972;2022-12-07T07:14:27;41.08;;;20.40;;
15635;SDS011;7917;50.818;6.972;2022-12-07T07:16:55;41.42;;;21.45;;
15635;SDS011;7917;50.818;6.972;2022-12-07T07:19:23;39.35;;;21.90;;
15635;SDS011;7917;50.818;6.972;2022-12-07T07:21:50;42.03;;;22.00;;
15635;SDS011;7917;50.818;6.972;2022-12-07T07:24:19;41.67;;;22.60;;
15635;SDS011;7917;50.818;6.972;2022-12-07T07:26:48;39.17;;;22.15;;
15635;SDS011;7917;50.818;6.972;2022-12-07T07:29:15;43.05;;;24.25;;
15635;SDS011;7917;50.818;6.972;2022-12-07T07:31:43;43.00;;;21.98;;
15635;SDS011;7917;50.818;6.972;2022-12-07T07:34:10;43.85;;;23.63;;
15635;SDS011;7917;50.818;6.972;2022-12-07T07:36:38;41.03;;;22.83;;
15635;SDS011;7917;50.818;6.972;2022-12-07T07:39:06;41.65;;;24.10;;
15635;SDS011;7917;50.818;6.972;2022-12-07T07:41:34;46.90;;;24.23;;
15635;SDS011;7917;50.818;6.972;2022-12-07T07:44:03;48.72;;;24.25;;
15635;SDS011;7917;50.818;6.972;2022-12-07T07:46:30;43.45;;;21.38;;
15635;SDS011;7917;50.818;6.972;2022-12-07T07:48:59;41.60;;;22.52;;
15635;SDS011;7917;50.818;6.972;2022-12-07T07:51:26;48.20;;;24.85;;
15635;SDS011;7917;50.818;6.972;2022-12-07T07:53:54;46.85;;;24.77;;
15635;SDS011;7917;50.818;6.972;2022-12-07T07:56:22;44.90;;;24.25;;
15635;SDS011;7917;50.818;6.972;2022-12-07T07:58:51;49.88;;;25.90;;
15635;SDS011;7917;50.818;6.972;2022-12-07T08:01:20;49.90;;;24.95;;
15635;SDS011;7917;50.818;6.972;2022-12-07T08:03:48;45.90;;;23.40;;
15635;SDS011;7917;50.818;6.972;2022-12-07T08:06:15;42.38;;;22.98;;
15635;SDS011;7917;50.818;6.972;2022-12-07T08:08:42;48.28;;;22.73;;
15635;SDS011;7917;50.818;6.972;2022-12-07T08:11:11;43.25;;;22.85;;
15635;SDS011;7917;50.818;6.972;2022-12-07T08:13:38;42.83;;;22.92;;
15635;SDS011;7917;50.818;6.972;2022-12-07T08:16:07;43.22;;;23.05;;
15635;SDS011;7917;50.818;6.972;2022-12-07T08:18:40;45.25;;;22.80;;
15635;SDS011;7917;50.818;6.972;2022-12-07T08:21:09;45.08;;;22.77;;
15635;SDS011;7917;50.818;6.972;2022-12-07T08:23:38;40.85;;;22.92;;
15635;SDS011;7917;50.818;6.972;2022-12-07T08:26:07;42.13;;;23.73;;
15635;SDS011;7917;50.818;6.972;2022-12-07T08:28:35;41.50;;;22.90;;
15635;SDS011;7917;50.818;6.972;2022-12-07T08:31:04;44.67;;;23.17;;
15635;SDS011;7917;50.818;6.972;2022-12-07T08:33:33;46.88;;;24.35;;
15635;SDS011;7917;50.818;6.972;2022-12-07T08:36:02;39.95;;;20.90;;
15635;SDS011;7917;50.818;6.972;2022-12-07T08:38:33;38.60;;;21.42;;
15635;SDS011;7917;50.818;6.972;2022-12-07T08:41:02;33.33;;;19.95;;
15635;SDS011;7917;50.818;6.972;2022-12-07T08:43:31;37.25;;;19.55;;
15635;SDS011;7917;50.818;6.972;2022-12-07T08:46:02;37.72;;;19.33;;
15635;SDS011;7917;50.818;6.972;2022-12-07T08:48:34;34.05;;;20.13;;
15635;SDS011;7917;50.818;6.972;2022-12-07T08:51:06;32.85;;;18.05;;
15635;SDS011;7917;50.818;6.972;2022-12-07T08:53:34;32.85;;;19.63;;
15635;SDS011;7917;50.818;6.972;2022-12-07T08:56:04;34.17;;;19.58;;
15635;SDS011;7917;50.818;6.972;2022-12-07T08:58:32;35.97;;;20.00;;
15635;SDS011;7917;50.818;6.972;2022-12-07T09:01:00;36.97;;;18.20;;
15635;SDS011;7917;50.818;6.972;2022-12-07T09:03:28;33.60;;;19.40;;
15635;SDS011;7917;50.818;6.972;2022-12-07T09:05:56;35.70;;;18.52;;
15635;SDS011;7917;50.818;6.972;2022-12-07T09:08:26;38.88;;;19.17;;
15635;SDS011;7917;50.818;6.972;2022-12-07T09:10:59;32.08;;;17.88;;
15635;SDS011;7917;50.818;6.972;2022-12-07T09:13:27;40.92;;;18.80;;
15635;SDS011;7917;50.818;6.972;2022-12-07T09:15:54;31.85;;;17.80;;
15635;SDS011;7917;50.818;6.972;2022-12-07T09:18:22;31.20;;;17.35;;
15635;SDS011;7917;50.818;6.972;2022-12-07T09:20:50;29.35;;;17.50;;
15635;SDS011;7917;50.818;6.972;2022-12-07T09:23:17;29.65;;;16.90;;
15635;SDS011;7917;50.818;6.972;2022-12-07T09:25:46;28.83;;;17.58;;
15635;SDS011;7917;50.818;6.972;2022-12-07T09:28:14;31.70;;;16.85;;
15635;SDS011;7917;50.818;6.972;2022-12-07T09:30:44;30.88;;;15.93;;
15635;SDS011;7917;50.818;6.972;2022-12-07T09:33:15;29.63;;;17.35;;
15635;SDS011;7917;50.818;6.972;2022-12-07T09:35:44;37.88;;;20.13;;
15635;SDS011;7917;50.818;6.972;2022-12-07T09:38:12;33.30;;;17.77;;
15635;SDS011;7917;50.818;6.972;2022-12-07T09:40:39;33.97;;;19.08;;
15635;SDS011;7917;50.818;6.972;2022-12-07T09:43:13;33.42;;;19.25;;
15635;SDS011;7917;50.818;6.972;2022-12-07T09:45:43;28.85;;;16.45;;
15635;SDS011;7917;50.818;6.972;2022-12-07T09:48:16;33.85;;;17.70;;
15635;SDS011;7917;50.818;6.972;2022-12-07T09:50:47;31.65;;;17.50;;
15635;SDS011;7917;50.818;6.972;2022-12-07T09:53:18;31.45;;;17.05;;
15635;SDS011;7917;50.818;6.972;2022-12-07T09:55:49;34.42;;;17.70;;
15635;SDS011;7917;50.818;6.972;2022-12-07T09:58:19;33.85;;;17.67;;
15635;SDS011;7917;50.818;6.972;2022-12-07T10:00:50;35.55;;;18.60;;
15635;SDS011;7917;50.818;6.972;2022-12-07T10:03:20;34.75;;;17.40;;
15635;SDS011;7917;50.818;6.972;2022-12-07T10:05:48;33.80;;;17.52;;
15635;SDS011;7917;50.818;6.972;2022-12-07T10:08:17;30.95;;;17.17;;
15635;SDS011;7917;50.818;6.972;2022-12-07T10:10:49;33.75;;;17.65;;
15635;SDS011;7917;50.818;6.972;2022-12-07T10:13:20;27.40;;;15.95;;
15635;SDS011;7917;50.818;6.972;2022-12-07T10:15:50;30.65;;;15.77;;
15635;SDS011;7917;50.818;6.972;2022-12-07T10:18:29;26.98;;;15.80;;
15635;SDS011;7917;50.818;6.972;2022-12-07T10:21:02;25.20;;;15.88;;
15635;SDS011;7917;50.818;6.972;2022-12-07T10:26:32;24.02;;;13.93;;
15635;SDS011;7917;50.818;6.972;2022-12-07T10:29:02;27.70;;;14.68;;
15635;SDS011;7917;50.818;6.972;2022-12-07T10:31:42;28.08;;;14.75;;
15635;SDS011;7917;50.818;6.972;2022-12-07T10:34:15;26.88;;;14.18;;
15635;SDS011;7917;50.818;6.972;2022-12-07T10:36:49;20.63;;;13.18;;
15635;SDS011;7917;50.818;6.972;2022-12-07T10:39:18;24.23;;;12.63;;
15635;SDS011;7917;50.818;6.972;2022-12-07T10:41:53;18.10;;;10.75;;
15635;SDS011;7917;50.818;6.972;2022-12-07T10:44:24;19.55;;;11.77;;
15635;SDS011;7917;50.818;6.972;2022-12-07T10:50:02;17.15;;;10.82;;
15635;SDS011;7917;50.818;6.972;2022-12-07T10:53:00;15.30;;;9.80;;
15635;SDS011;7917;50.818;6.972;2022-12-07T10:55:54;21.20;;;11.57;;
15635;SDS011;7917;50.818;6.972;2022-12-07T10:58:40;18.10;;;9.95;;
15635;SDS011;7917;50.818;6.972;2022-12-07T11:01:21;16.63;;;10.40;;
15635;SDS011;7917;50.818;6.972;2022-12-07T11:04:00;19.20;;;9.45;;
15635;SDS011;7917;50.818;6.972;2022-12-07T11:06:41;18.33;;;10.07;;
15635;SDS011;7917;50.818;6.972;2022-12-07T11:09:25;16.83;;;9.63;;
15635;SDS011;7917;50.818;6.972;2022-12-07T11:12:11;18.48;;;9.02;;
15635;SDS011;7917;50.818;6.972;2022-12-07T11:14:52;18.48;;;9.35;;
15635;SDS011;7917;50.818;6.972;2022-12-07T11:17:31;17.08;;;9.10;;
15635;SDS011;7917;50.818;6.972;2022-12-07T11:20:05;15.00;;;8.10;;
15635;SDS011;7917;50.818;6.972;2022-12-07T11:22:46;14.65;;;8.75;;
15635;SDS011;7917;50.818;6.972;2022-12-07T11:25:23;14.32;;;8.50;;
15635;SDS011;7917;50.818;6.972;2022-12-07T11:28:02;13.63;;;7.45;;
15635;SDS011;7917;50.818;6.972;2022-12-07T11:30:42;14.18;;;8.10;;
15635;SDS011;7917;50.818;6.972;2022-12-07T11:33:21;15.13;;;8.20;;
15635;SDS011;7917;50.818;6.972;2022-12-07T11:35:56;15.68;;;8.02;;
15635;SDS011;7917;50.818;6.972;2022-12-07T11:38:37;14.63;;;7.45;;
15635;SDS011;7917;50.818;6.972;2022-12-07T11:41:10;13.15;;;7.60;;
15635;SDS011;7917;50.818;6.972;2022-12-07T11:43:45;11.13;;;7.10;;
15635;SDS011;7917;50.818;6.972;2022-12-07T11:46:21;13.30;;;5.93;;
15635;SDS011;7917;50.818;6.972;2022-12-07T11:48:55;12.93;;;6.28;;
15635;SDS011;7917;50.818;6.972;2022-12-07T11:51:28;12.50;;;5.38;;
15635;SDS011;7917;50.818;6.972;2022-12-07T11:54:01;10.93;;;5.43;;
15635;SDS011;7917;50.818;6.972;2022-12-07T11:56:31;10.43;;;5.90;;
15635;SDS011;7917;50.818;6.972;2022-12-07T11:59:04;18.23;;;12.20;;
15635;SDS011;7917;50.818;6.972;2022-12-07T12:01:41;12.93;;;7.40;;
15635;SDS011;7917;50.818;6.972;2022-12-07T12:04:21;12.20;;;8.05;;
15635;SDS011;7917;50.818;6.972;2022-12-07T12:06:58;17.17;;;6.72;;
15635;SDS011;7917;50.818;6.972;2022-12-07T12:09:28;12.10;;;7.35;;
15635;SDS011;7917;50.818;6.972;2022-12-07T12:12:13;19.13;;;8.13;;
15635;SDS011;7917;50.818;6.972;2022-12-07T12:14:53;17.38;;;7.80;;
15635;SDS011;7917;50.818;6.972;2022-12-07T12:20:37;16.35;;;8.27;;
15635;SDS011;7917;50.818;6.972;2022-12-07T12:23:12;14.90;;;9.00;;
15635;SDS011;7917;50.818;6.972;2022-12-07T12:25:44;15.68;;;8.52;;
15635;SDS011;7917;50.818;6.972;2022-12-07T12:28:23;18.85;;;8.35;;
15635;SDS011;7917;50.818;6.972;2022-12-07T12:31:06;15.05;;;8.70;;
15635;SDS011;7917;50.818;6.972;2022-12-07T12:33:38;15.05;;;8.77;;
15635;SDS011;7917;50.818;6.972;2022-12-07T12:36:22;14.85;;;8.35;;
15635;SDS011;7917;50.818;6.972;2022-12-07T12:41:51;16.65;;;8.50;;
15635;SDS011;7917;50.818;6.972;2022-12-07T12:47:52;15.50;;;7.97;;
15635;SDS011;7917;50.818;6.972;2022-12-07T12:50:22;14.98;;;7.38;;
15635;SDS011;7917;50.818;6.972;2022-12-07T12:53:01;11.85;;;6.63;;
15635;SDS011;7917;50.818;6.972;2022-12-07T12:55:54;13.02;;;6.78;;
15635;SDS011;7917;50.818;6.972;2022-12-07T13:02:08;14.60;;;8.65;;
15635;SDS011;7917;50.818;6.972;2022-12-07T13:25:19;19.48;;;13.23;;
15635;SDS011;7917;50.818;6.972;2022-12-07T13:28:02;18.58;;;11.48;;
15635;SDS011;7917;50.818;6.972;2022-12-07T13:30:38;22.23;;;11.75;;
15635;SDS011;7917;50.818;6.972;2022-12-07T13:33:11;16.35;;;11.63;;
15635;SDS011;7917;50.818;6.972;2022-12-07T13:35:40;15.52;;;9.25;;
15635;SDS011;7917;50.818;6.972;2022-12-07T13:38:16;13.55;;;9.77;;
15635;SDS011;7917;50.818;6.972;2022-12-07T13:41:00;17.40;;;9.93;;
15635;SDS011;7917;50.818;6.972;2022-12-07T13:43:41;19.02;;;10.00;;
15635;SDS011;7917;50.818;6.972;2022-12-07T13:46:11;16.92;;;10.18;;
15635;SDS011;7917;50.818;6.972;2022-12-07T13:48:45;14.60;;;9.60;;
15635;SDS011;7917;50.818;6.972;2022-12-07T13:51:17;15.88;;;9.15;;
15635;SDS011;7917;50.818;6.972;2022-12-07T13:53:47;18.15;;;8.38;;
15635;SDS011;7917;50.818;6.972;2022-12-07T13:56:17;14.35;;;7.80;;
15635;SDS011;7917;50.818;6.972;2022-12-07T13:58:45;14.50;;;6.55;;
15635;SDS011;7917;50.818;6.972;2022-12-07T14:01:13;10.13;;;6.35;;
15635;SDS011;7917;50.818;6.972;2022-12-07T14:03:41;12.00;;;6.40;;
15635;SDS011;7917;50.818;6.972;2022-12-07T14:06:16;11.90;;;6.35;;
15635;SDS011;7917;50.818;6.972;2022-12-07T14:08:46;9.15;;;5.88;;
15635;SDS011;7917;50.818;6.972;2022-12-07T14:11:15;13.70;;;6.53;;
15635;SDS011;7917;50.818;6.972;2022-12-07T14:13:50;12.35;;;6.30;;
15635;SDS011;7917;50.818;6.972;2022-12-07T14:16:24;10.15;;;6.18;;
15635;SDS011;7917;50.818;6.972;2022-12-07T14:18:55;11.52;;;6.15;;
15635;SDS011;7917;50.818;6.972;2022-12-07T14:21:25;11.30;;;6.88;;
15635;SDS011;7917;50.818;6.972;2022-12-07T14:24:11;10.52;;;6.07;;
15635;SDS011;7917;50.818;6.972;2022-12-07T14:26:44;12.82;;;7.47;;
15635;SDS011;7917;50.818;6.972;2022-12-07T14:29:21;9.90;;;6.78;;
15635;SDS011;7917;50.818;6.972;2022-12-07T14:31:56;16.45;;;6.78;;
15635;SDS011;7917;50.818;6.972;2022-12-07T14:34:25;13.85;;;6.60;;
15635;SDS011;7917;50.818;6.972;2022-12-07T14:36:53;12.55;;;8.10;;
15635;SDS011;7917;50.818;6.972;2022-12-07T14:39:20;13.23;;;8.10;;
15635;SDS011;7917;50.818;6.972;2022-12-07T14:41:47;12.88;;;7.97;;
15635;SDS011;7917;50.818;6.972;2022-12-07T14:44:18;13.27;;;8.13;;
15635;SDS011;7917;50.818;6.972;2022-12-07T14:46:49;13.00;;;8.00;;
15635;SDS011;7917;50.818;6.972;2022-12-07T14:49:18;17.77;;;8.40;;
15635;SDS011;7917;50.818;6.972;2022-12-07T14:51:46;16.95;;;8.55;;
15635;SDS011;7917;50.818;6.972;2022-12-07T14:54:15;16.40;;;9.15;;
15635;SDS011;7917;50.818;6.972;2022-12-07T14:56:45;25.95;;;12.75;;
15635;SDS011;7917;50.818;6.972;2022-12-07T14:59:15;18.35;;;12.75;;
15635;SDS011;7917;50.818;6.972;2022-12-07T15:01:45;15.60;;;11.80;;
15635;SDS011;7917;50.818;6.972;2022-12-07T15:04:12;19.48;;;12.68;;
15635;SDS011;7917;50.818;6.972;2022-12-07T15:06:40;16.77;;;11.30;;
15635;SDS011;7917;50.818;6.972;2022-12-07T15:09:10;18.77;;;10.60;;
15635;SDS011;7917;50.818;6.972;2022-12-07T15:11:38;19.83;;;11.10;;
15635;SDS011;7917;50.818;6.972;2022-12-07T15:14:06;18.48;;;11.35;;
15635;SDS011;7917;50.818;6.972;2022-12-07T15:16:34;15.38;;;10.68;;
15635;SDS011;7917;50.818;6.972;2022-12-07T15:19:07;19.45;;;10.70;;
15635;SDS011;7917;50.818;6.972;2022-12-07T15:21:41;15.38;;;9.65;;
15635;SDS011;7917;50.818;6.972;2022-12-07T15:24:09;16.27;;;11.35;;
15635;SDS011;7917;50.818;6.972;2022-12-07T15:26:38;17.50;;;9.95;;
15635;SDS011;7917;50.818;6.972;2022-12-07T15:29:07;15.70;;;9.95;;
15635;SDS011;7917;50.818;6.972;2022-12-07T15:31:35;16.95;;;9.65;;
15635;SDS011;7917;50.818;6.972;2022-12-07T15:34:03;16.98;;;9.70;;
15635;SDS011;7917;50.818;6.972;2022-12-07T15:36:33;13.45;;;9.20;;
15635;SDS011;7917;50.818;6.972;2022-12-07T15:39:00;15.43;;;9.85;;
15635;SDS011;7917;50.818;6.972;2022-12-07T15:41:29;16.10;;;9.90;;